sensor_id;sensor_type;location;lat;lon;timestamp;temperature;humidity
9450;DHT22;4763;48.370;10.874;2024-01-15T00:01:55;-2.00;99.90
9450;DHT22;4763;48.370;10.874;2024-01-15T00:04:21;-2.10;99.90
9450;DHT22;4763;48.370;10.874;2024-01-15T00:06:49;-2.20;99.90
9450;DHT22;4763;48.370;10.874;2024-01-15T00:09:16;-2.20;99.90
9450;DHT22;4763;48.370;10.874;2024-01-15T00:11:43;-2.20;99.90
9450;DHT22;4763;48.370;10.874;2024-01-15T00:14:09;-2.30;99.90
9450;DHT22;4763;48.370;10.874;2024-01-15T00:16:37;-2.30;99.90
9450;DHT22;4763;48.370;10.874;2024-01-15T00:19:05;-2.30;99.90
9450;DHT22;4763;48.370;10.874;2024-01-15T00:21:32;-2.30;99.90
9450;DHT22;4763;48.370;10.874;2024-01-15T00:23:59;-2.20;99.90
9450;DHT22;4763;48.370;10.874;2024-01-15T00:26:26;-2.20;99.90
9450;DHT22;4763;48.370;10.874;2024-01-15T00:28:52;-2.30;99.90
9450;DHT22;4763;48.370;10.874;2024-01-15T00:31:19;-2.30;99.90
9450;DHT22;4763;48.370;10.874;2024-01-15T00:33:46;-2.30;99.90
9450;DHT22;4763;48.370;10.874;2024-01-15T00:36:14;-2.30;99.90
9450;DHT22;4763;48.370;10.874;2024-01-15T00:38:42;-2.40;99.90
9450;DHT22;4763;48.370;10.874;2024-01-15T00:41:09;-2.40;99.90
9450;DHT22;4763;48.370;10.874;2024-01-15T00:43:35;-2.40;99.90
9450;DHT22;4763;48.370;10.874;2024-01-15T00:46:02;-2.40;99.90
9450;DHT22;4763;48.370;10.874;2024-01-15T00:48:29;-2.50;99.90
9450;DHT22;4763;48.370;10.874;2024-01-15T00:50:56;-2.50;99.90
9450;DHT22;4763;48.370;10.874;2024-01-15T00:53:26;-2.50;99.90
9450;DHT22;4763;48.370;10.874;2024-01-15T00:55:53;-2.40;99.90
9450;DHT22;4763;48.370;10.874;2024-01-15T00:58:19;-2.40;99.90
9450;DHT22;4763;48.370;10.874;2024-01-15T01:00:46;-2.50;99.90
9450;DHT22;4763;48.370;10.874;2024-01-15T01:03:13;-2.50;99.90
9450;DHT22;4763;48.370;10.874;2024-01-15T01:05:40;-2.50;99.90
9450;DHT22;4763;48.370;10.874;2024-01-15T01:08:07;-2.50;99.90
9450;DHT22;4763;48.370;10.874;2024-01-15T01:10:35;-2.50;99.90
9450;DHT22;4763;48.370;10.874;2024-01-15T01:13:02;-2.50;99.90
9450;DHT22;4763;48.370;10.874;2024-01-15T01:15:29;-2.60;99.90
9450;DHT22;4763;48.370;10.874;2024-01-15T01:17:55;-2.60;99.90
9450;DHT22;4763;48.370;10.874;2024-01-15T01:20:22;-2.60;99.90
9450;DHT22;4763;48.370;10.874;2024-01-15T01:22:49;-2.70;99.90
9450;DHT22;4763;48.370;10.874;2024-01-15T01:25:16;-2.60;99.90
9450;DHT22;4763;48.370;10.874;2024-01-15T01:27:44;-2.60;99.90
9450;DHT22;4763;48.370;10.874;2024-01-15T01:30:11;-2.70;99.90
9450;DHT22;4763;48.370;10.874;2024-01-15T01:32:38;-2.70;99.90
9450;DHT22;4763;48.370;10.874;2024-01-15T01:35:05;-2.70;99.90
9450;DHT22;4763;48.370;10.874;2024-01-15T01:37:32;-2.70;99.90
9450;DHT22;4763;48.370;10.874;2024-01-15T01:39:59;-2.70;99.90
9450;DHT22;4763;48.370;10.874;2024-01-15T01:42:26;-2.70;99.90
9450;DHT22;4763;48.370;10.874;2024-01-15T01:44:54;-2.60;99.90
9450;DHT22;4763;48.370;10.874;2024-01-15T01:47:21;-2.50;99.90
9450;DHT22;4763;48.370;10.874;2024-01-15T01:49:48;-2.50;99.90
9450;DHT22;4763;48.370;10.874;2024-01-15T01:52:15;-2.40;99.90
9450;DHT22;4763;48.370;10.874;2024-01-15T01:54:42;-2.40;99.90
9450;DHT22;4763;48.370;10.874;2024-01-15T01:57:09;-2.40;99.90
9450;DHT22;4763;48.370;10.874;2024-01-15T01:59:37;-2.40;99.90
9450;DHT22;4763;48.370;10.874;2024-01-15T02:02:05;-2.30;99.90
9450;DHT22;4763;48.370;10.874;2024-01-15T02:04:33;-2.30;99.90
9450;DHT22;4763;48.370;10.874;2024-01-15T02:07:01;-2.30;99.90
9450;DHT22;4763;48.370;10.874;2024-01-15T02:09:28;-2.30;99.90
9450;DHT22;4763;48.370;10.874;2024-01-15T02:11:55;-2.30;99.90
9450;DHT22;4763;48.370;10.874;2024-01-15T02:14:22;-2.30;99.90
9450;DHT22;4763;48.370;10.874;2024-01-15T02:16:49;-2.30;99.90
9450;DHT22;4763;48.370;10.874;2024-01-15T02:19:17;-2.30;99.90
9450;DHT22;4763;48.370;10.874;2024-01-15T02:21:44;-2.30;99.90
9450;DHT22;4763;48.370;10.874;2024-01-15T02:24:12;-2.20;99.90
9450;DHT22;4763;48.370;10.874;2024-01-15T02:26:39;-2.20;99.90
9450;DHT22;4763;48.370;10.874;2024-01-15T02:29:07;-2.30;99.90
9450;DHT22;4763;48.370;10.874;2024-01-15T02:31:34;-2.20;99.90
9450;DHT22;4763;48.370;10.874;2024-01-15T02:34:01;-2.30;99.90
9450;DHT22;4763;48.370;10.874;2024-01-15T02:36:28;-2.30;99.90
9450;DHT22;4763;48.370;10.874;2024-01-15T02:38:55;-2.30;99.90
9450;DHT22;4763;48.370;10.874;2024-01-15T02:41:23;-2.40;99.90
9450;DHT22;4763;48.370;10.874;2024-01-15T02:43:50;-2.30;99.90
9450;DHT22;4763;48.370;10.874;2024-01-15T02:46:16;-2.30;99.90
9450;DHT22;4763;48.370;10.874;2024-01-15T02:48:43;-2.40;99.90
9450;DHT22;4763;48.370;10.874;2024-01-15T02:51:10;-2.40;99.90
9450;DHT22;4763;48.370;10.874;2024-01-15T02:53:37;-2.40;99.90
9450;DHT22;4763;48.370;10.874;2024-01-15T02:56:04;-2.40;99.90
9450;DHT22;4763;48.370;10.874;2024-01-15T02:58:32;-2.40;99.90
9450;DHT22;4763;48.370;10.874;2024-01-15T03:00:59;-2.40;99.90
9450;DHT22;4763;48.370;10.874;2024-01-15T03:03:25;-2.50;99.90
9450;DHT22;4763;48.370;10.874;2024-01-15T03:05:52;-2.50;99.90
9450;DHT22;4763;48.370;10.874;2024-01-15T03:08:19;-2.50;99.90
9450;DHT22;4763;48.370;10.874;2024-01-15T03:10:45;-2.50;99.90
9450;DHT22;4763;48.370;10.874;2024-01-15T03:13:12;-2.50;99.90
9450;DHT22;4763;48.370;10.874;2024-01-15T03:15:40;-2.50;99.90
9450;DHT22;4763;48.370;10.874;2024-01-15T03:18:07;-2.50;99.90
9450;DHT22;4763;48.370;10.874;2024-01-15T03:20:34;-2.40;99.90
9450;DHT22;4763;48.370;10.874;2024-01-15T03:23:00;-2.40;99.90
9450;DHT22;4763;48.370;10.874;2024-01-15T03:25:27;-2.50;99.90
9450;DHT22;4763;48.370;10.874;2024-01-15T03:27:54;-2.40;99.90
9450;DHT22;4763;48.370;10.874;2024-01-15T03:30:21;-2.40;99.90
9450;DHT22;4763;48.370;10.874;2024-01-15T03:32:49;-2.30;99.90
9450;DHT22;4763;48.370;10.874;2024-01-15T03:35:16;-2.30;99.90
9450;DHT22;4763;48.370;10.874;2024-01-15T03:37:44;-2.30;99.90
9450;DHT22;4763;48.370;10.874;2024-01-15T03:40:11;-2.40;99.90
9450;DHT22;4763;48.370;10.874;2024-01-15T03:42:38;-2.40;99.90
9450;DHT22;4763;48.370;10.874;2024-01-15T03:45:05;-2.40;99.90
9450;DHT22;4763;48.370;10.874;2024-01-15T03:47:32;-2.40;99.90
9450;DHT22;4763;48.370;10.874;2024-01-15T03:50:00;-2.50;99.90
9450;DHT22;4763;48.370;10.874;2024-01-15T03:52:27;-2.50;99.90
9450;DHT22;4763;48.370;10.874;2024-01-15T03:54:54;-2.50;99.90
9450;DHT22;4763;48.370;10.874;2024-01-15T03:57:20;-2.40;99.90
9450;DHT22;4763;48.370;10.874;2024-01-15T03:59:47;-2.50;99.90
9450;DHT22;4763;48.370;10.874;2024-01-15T04:02:14;-2.50;99.90
9450;DHT22;4763;48.370;10.874;2024-01-15T04:04:42;-2.50;99.90
9450;DHT22;4763;48.370;10.874;2024-01-15T04:07:10;-2.50;99.90
9450;DHT22;4763;48.370;10.874;2024-01-15T04:09:37;-2.50;99.90
9450;DHT22;4763;48.370;10.874;2024-01-15T04:12:04;-2.50;99.90
9450;DHT22;4763;48.370;10.874;2024-01-15T04:14:31;-2.50;99.90
9450;DHT22;4763;48.370;10.874;2024-01-15T04:16:57;-2.50;99.90
9450;DHT22;4763;48.370;10.874;2024-01-15T04:19:24;-2.50;99.90
9450;DHT22;4763;48.370;10.874;2024-01-15T04:21:51;-2.40;99.90
9450;DHT22;4763;48.370;10.874;2024-01-15T04:24:19;-2.50;99.90
9450;DHT22;4763;48.370;10.874;2024-01-15T04:26:46;-2.50;99.90
9450;DHT22;4763;48.370;10.874;2024-01-15T04:29:12;-2.40;99.90
9450;DHT22;4763;48.370;10.874;2024-01-15T04:31:39;-2.40;99.90
9450;DHT22;4763;48.370;10.874;2024-01-15T04:34:06;-2.40;99.90
9450;DHT22;4763;48.370;10.874;2024-01-15T04:36:38;-2.30;99.90
9450;DHT22;4763;48.370;10.874;2024-01-15T04:39:05;-2.40;99.90
9450;DHT22;4763;48.370;10.874;2024-01-15T04:41:33;-2.30;99.90
9450;DHT22;4763;48.370;10.874;2024-01-15T04:44:00;-2.30;99.90
9450;DHT22;4763;48.370;10.874;2024-01-15T04:46:27;-2.20;99.90
9450;DHT22;4763;48.370;10.874;2024-01-15T04:48:54;-2.20;99.90
9450;DHT22;4763;48.370;10.874;2024-01-15T04:51:20;-2.10;99.90
9450;DHT22;4763;48.370;10.874;2024-01-15T04:53:47;-2.10;99.90
9450;DHT22;4763;48.370;10.874;2024-01-15T04:56:14;-2.00;99.90
9450;DHT22;4763;48.370;10.874;2024-01-15T04:58:42;-2.10;99.90
9450;DHT22;4763;48.370;10.874;2024-01-15T05:01:09;-2.00;99.90
9450;DHT22;4763;48.370;10.874;2024-01-15T05:03:35;-2.00;99.90
9450;DHT22;4763;48.370;10.874;2024-01-15T05:06:02;-1.90;99.90
9450;DHT22;4763;48.370;10.874;2024-01-15T05:08:30;-2.00;99.90
9450;DHT22;4763;48.370;10.874;2024-01-15T05:10:57;-2.00;99.90
9450;DHT22;4763;48.370;10.874;2024-01-15T05:13:24;-1.90;99.90
9450;DHT22;4763;48.370;10.874;2024-01-15T05:15:52;-1.90;99.90
9450;DHT22;4763;48.370;10.874;2024-01-15T05:18:19;-2.00;99.90
9450;DHT22;4763;48.370;10.874;2024-01-15T05:20:46;-2.00;99.90
9450;DHT22;4763;48.370;10.874;2024-01-15T05:23:12;-2.10;99.90
9450;DHT22;4763;48.370;10.874;2024-01-15T05:25:39;-2.10;99.90
9450;DHT22;4763;48.370;10.874;2024-01-15T05:28:06;-2.10;99.90
9450;DHT22;4763;48.370;10.874;2024-01-15T05:30:33;-2.10;99.90
9450;DHT22;4763;48.370;10.874;2024-01-15T05:33:01;-2.10;99.90
9450;DHT22;4763;48.370;10.874;2024-01-15T05:35:28;-2.10;99.90
9450;DHT22;4763;48.370;10.874;2024-01-15T05:37:55;-2.10;99.90
9450;DHT22;4763;48.370;10.874;2024-01-15T05:40:22;-2.10;99.90
9450;DHT22;4763;48.370;10.874;2024-01-15T05:42:49;-2.10;99.90
9450;DHT22;4763;48.370;10.874;2024-01-15T05:45:16;-2.10;99.90
9450;DHT22;4763;48.370;10.874;2024-01-15T05:47:43;-2.10;99.90
9450;DHT22;4763;48.370;10.874;2024-01-15T05:50:11;-2.00;99.90
9450;DHT22;4763;48.370;10.874;2024-01-15T05:52:38;-2.00;99.90
9450;DHT22;4763;48.370;10.874;2024-01-15T05:55:05;-2.10;99.90
9450;DHT22;4763;48.370;10.874;2024-01-15T05:57:32;-2.00;99.90
9450;DHT22;4763;48.370;10.874;2024-01-15T05:59:59;-2.00;99.90
9450;DHT22;4763;48.370;10.874;2024-01-15T06:02:26;-2.00;99.90
9450;DHT22;4763;48.370;10.874;2024-01-15T06:04:53;-2.00;99.90
9450;DHT22;4763;48.370;10.874;2024-01-15T06:07:23;-2.00;99.90
9450;DHT22;4763;48.370;10.874;2024-01-15T06:09:49;-2.00;99.90
9450;DHT22;4763;48.370;10.874;2024-01-15T06:12:16;-2.00;99.90
9450;DHT22;4763;48.370;10.874;2024-01-15T06:14:43;-2.00;99.90
9450;DHT22;4763;48.370;10.874;2024-01-15T06:17:10;-2.00;99.90
9450;DHT22;4763;48.370;10.874;2024-01-15T06:19:36;-2.00;99.90
9450;DHT22;4763;48.370;10.874;2024-01-15T06:22:03;-2.00;99.90
9450;DHT22;4763;48.370;10.874;2024-01-15T06:24:31;-1.90;99.90
9450;DHT22;4763;48.370;10.874;2024-01-15T06:26:59;-1.90;99.90
9450;DHT22;4763;48.370;10.874;2024-01-15T06:29:26;-1.90;99.90
9450;DHT22;4763;48.370;10.874;2024-01-15T06:31:53;-1.90;99.90
9450;DHT22;4763;48.370;10.874;2024-01-15T06:34:20;-2.00;99.90
9450;DHT22;4763;48.370;10.874;2024-01-15T06:36:47;-1.90;99.90
9450;DHT22;4763;48.370;10.874;2024-01-15T06:39:13;-1.90;99.90
9450;DHT22;4763;48.370;10.874;2024-01-15T06:41:41;-1.90;99.90
9450;DHT22;4763;48.370;10.874;2024-01-15T06:44:10;-1.80;99.90
9450;DHT22;4763;48.370;10.874;2024-01-15T06:46:41;-1.80;99.90
9450;DHT22;4763;48.370;10.874;2024-01-15T06:49:08;-1.80;99.90
9450;DHT22;4763;48.370;10.874;2024-01-15T06:51:35;-1.70;99.90
9450;DHT22;4763;48.370;10.874;2024-01-15T06:54:02;-1.70;99.90
9450;DHT22;4763;48.370;10.874;2024-01-15T06:56:28;-1.70;99.90
9450;DHT22;4763;48.370;10.874;2024-01-15T06:58:57;-1.60;99.90
9450;DHT22;4763;48.370;10.874;2024-01-15T07:01:23;-1.50;99.90
9450;DHT22;4763;48.370;10.874;2024-01-15T07:03:50;-1.40;99.90
9450;DHT22;4763;48.370;10.874;2024-01-15T07:06:17;-1.30;99.90
9450;DHT22;4763;48.370;10.874;2024-01-15T07:08:43;-1.20;99.90
9450;DHT22;4763;48.370;10.874;2024-01-15T07:11:10;-1.10;99.90
9450;DHT22;4763;48.370;10.874;2024-01-15T07:13:37;-1.10;99.90
9450;DHT22;4763;48.370;10.874;2024-01-15T07:16:05;-1.10;99.90
9450;DHT22;4763;48.370;10.874;2024-01-15T07:18:32;-1.00;99.90
9450;DHT22;4763;48.370;10.874;2024-01-15T07:20:59;-1.00;99.90
9450;DHT22;4763;48.370;10.874;2024-01-15T07:23:27;-1.00;99.90
9450;DHT22;4763;48.370;10.874;2024-01-15T07:25:53;-1.10;99.90
9450;DHT22;4763;48.370;10.874;2024-01-15T07:28:20;-1.00;99.90
9450;DHT22;4763;48.370;10.874;2024-01-15T07:30:47;-1.00;99.90
9450;DHT22;4763;48.370;10.874;2024-01-15T07:33:15;-1.00;99.90
9450;DHT22;4763;48.370;10.874;2024-01-15T07:35:42;-1.00;99.90
9450;DHT22;4763;48.370;10.874;2024-01-15T07:38:08;-0.90;99.90
9450;DHT22;4763;48.370;10.874;2024-01-15T07:40:37;-1.00;99.90
9450;DHT22;4763;48.370;10.874;2024-01-15T07:43:04;-0.80;99.90
9450;DHT22;4763;48.370;10.874;2024-01-15T07:45:30;-0.80;99.90
9450;DHT22;4763;48.370;10.874;2024-01-15T07:47:57;-0.70;99.90
9450;DHT22;4763;48.370;10.874;2024-01-15T07:50:25;-0.70;99.90
9450;DHT22;4763;48.370;10.874;2024-01-15T07:52:52;-0.70;99.90
9450;DHT22;4763;48.370;10.874;2024-01-15T07:55:19;-0.60;99.90
9450;DHT22;4763;48.370;10.874;2024-01-15T07:57:46;-0.60;99.90
9450;DHT22;4763;48.370;10.874;2024-01-15T08:00:13;-0.50;99.90
9450;DHT22;4763;48.370;10.874;2024-01-15T08:02:40;-0.60;99.90
9450;DHT22;4763;48.370;10.874;2024-01-15T08:05:07;-0.50;99.90
9450;DHT22;4763;48.370;10.874;2024-01-15T08:07:35;-0.50;99.90
9450;DHT22;4763;48.370;10.874;2024-01-15T08:10:02;-0.40;99.90
9450;DHT22;4763;48.370;10.874;2024-01-15T08:12:28;-0.40;99.90
9450;DHT22;4763;48.370;10.874;2024-01-15T08:14:55;-0.30;99.90
9450;DHT22;4763;48.370;10.874;2024-01-15T08:17:22;-0.30;99.90
9450;DHT22;4763;48.370;10.874;2024-01-15T08:19:49;-0.20;99.90
9450;DHT22;4763;48.370;10.874;2024-01-15T08:22:15;-0.20;99.90
9450;DHT22;4763;48.370;10.874;2024-01-15T08:24:44;-0.10;99.90
9450;DHT22;4763;48.370;10.874;2024-01-15T08:27:11;-0.10;99.90
9450;DHT22;4763;48.370;10.874;2024-01-15T08:29:37;-0.20;99.90
9450;DHT22;4763;48.370;10.874;2024-01-15T08:32:05;-0.20;99.90
9450;DHT22;4763;48.370;10.874;2024-01-15T08:34:31;-0.10;99.90
9450;DHT22;4763;48.370;10.874;2024-01-15T08:36:58;-0.10;99.90
9450;DHT22;4763;48.370;10.874;2024-01-15T08:39:25;0.00;99.90
9450;DHT22;4763;48.370;10.874;2024-01-15T08:41:53;0.10;99.90
9450;DHT22;4763;48.370;10.874;2024-01-15T08:44:20;0.10;99.90
9450;DHT22;4763;48.370;10.874;2024-01-15T08:46:46;0.10;99.90
9450;DHT22;4763;48.370;10.874;2024-01-15T08:49:13;0.20;99.90
9450;DHT22;4763;48.370;10.874;2024-01-15T08:51:40;0.10;99.90
9450;DHT22;4763;48.370;10.874;2024-01-15T08:54:06;0.20;99.90
9450;DHT22;4763;48.370;10.874;2024-01-15T08:56:33;0.30;99.90
9450;DHT22;4763;48.370;10.874;2024-01-15T08:59:01;0.30;99.90
9450;DHT22;4763;48.370;10.874;2024-01-15T09:01:28;0.30;99.90
9450;DHT22;4763;48.370;10.874;2024-01-15T09:03:56;0.30;99.90
9450;DHT22;4763;48.370;10.874;2024-01-15T09:06:23;0.40;99.90
9450;DHT22;4763;48.370;10.874;2024-01-15T09:08:50;0.40;99.90
9450;DHT22;4763;48.370;10.874;2024-01-15T09:11:16;0.40;99.90
9450;DHT22;4763;48.370;10.874;2024-01-15T09:13:43;0.40;99.90
9450;DHT22;4763;48.370;10.874;2024-01-15T09:16:11;0.50;99.90
9450;DHT22;4763;48.370;10.874;2024-01-15T09:18:38;0.50;99.90
9450;DHT22;4763;48.370;10.874;2024-01-15T09:21:05;0.50;99.90
9450;DHT22;4763;48.370;10.874;2024-01-15T09:23:31;0.60;99.90
9450;DHT22;4763;48.370;10.874;2024-01-15T09:25:58;0.60;99.90
9450;DHT22;4763;48.370;10.874;2024-01-15T09:28:25;0.60;99.90
9450;DHT22;4763;48.370;10.874;2024-01-15T09:30:51;0.70;99.90
9450;DHT22;4763;48.370;10.874;2024-01-15T09:33:19;0.70;99.90
9450;DHT22;4763;48.370;10.874;2024-01-15T09:35:46;0.70;99.90
9450;DHT22;4763;48.370;10.874;2024-01-15T09:38:13;0.70;99.90
9450;DHT22;4763;48.370;10.874;2024-01-15T09:40:43;0.70;99.90
9450;DHT22;4763;48.370;10.874;2024-01-15T09:43:12;0.70;99.90
9450;DHT22;4763;48.370;10.874;2024-01-15T09:45:39;0.80;99.90
9450;DHT22;4763;48.370;10.874;2024-01-15T09:48:07;0.80;99.90
9450;DHT22;4763;48.370;10.874;2024-01-15T09:50:35;0.90;99.90
9450;DHT22;4763;48.370;10.874;2024-01-15T09:53:02;0.90;99.90
9450;DHT22;4763;48.370;10.874;2024-01-15T09:55:30;0.90;99.90
9450;DHT22;4763;48.370;10.874;2024-01-15T09:58:00;0.90;99.90
9450;DHT22;4763;48.370;10.874;2024-01-15T10:00:28;1.00;99.90
9450;DHT22;4763;48.370;10.874;2024-01-15T10:02:56;1.00;99.90
9450;DHT22;4763;48.370;10.874;2024-01-15T10:05:22;1.10;99.90
9450;DHT22;4763;48.370;10.874;2024-01-15T10:07:51;1.10;99.90
9450;DHT22;4763;48.370;10.874;2024-01-15T10:10:19;1.10;99.90
9450;DHT22;4763;48.370;10.874;2024-01-15T10:12:47;1.30;99.90
9450;DHT22;4763;48.370;10.874;2024-01-15T10:15:14;1.60;99.90
9450;DHT22;4763;48.370;10.874;2024-01-15T10:17:40;1.70;99.90
9450;DHT22;4763;48.370;10.874;2024-01-15T10:20:09;1.70;99.90
9450;DHT22;4763;48.370;10.874;2024-01-15T10:22:40;1.70;99.90
9450;DHT22;4763;48.370;10.874;2024-01-15T10:25:10;1.80;99.90
9450;DHT22;4763;48.370;10.874;2024-01-15T10:27:37;2.00;99.90
9450;DHT22;4763;48.370;10.874;2024-01-15T10:30:04;2.20;99.90
9450;DHT22;4763;48.370;10.874;2024-01-15T10:32:31;2.40;99.90
9450;DHT22;4763;48.370;10.874;2024-01-15T10:34:58;2.80;99.90
9450;DHT22;4763;48.370;10.874;2024-01-15T10:37:25;2.80;99.90
9450;DHT22;4763;48.370;10.874;2024-01-15T10:39:52;2.90;99.90
9450;DHT22;4763;48.370;10.874;2024-01-15T10:42:20;2.90;99.90
9450;DHT22;4763;48.370;10.874;2024-01-15T10:44:47;3.00;99.90
9450;DHT22;4763;48.370;10.874;2024-01-15T10:47:14;3.20;99.90
9450;DHT22;4763;48.370;10.874;2024-01-15T10:49:41;3.20;99.90
9450;DHT22;4763;48.370;10.874;2024-01-15T10:52:08;3.20;99.90
9450;DHT22;4763;48.370;10.874;2024-01-15T10:54:35;3.10;99.90
9450;DHT22;4763;48.370;10.874;2024-01-15T10:57:04;3.00;99.90
9450;DHT22;4763;48.370;10.874;2024-01-15T10:59:32;2.70;99.90
9450;DHT22;4763;48.370;10.874;2024-01-15T11:01:59;2.60;99.90
9450;DHT22;4763;48.370;10.874;2024-01-15T11:04:26;2.50;99.90
9450;DHT22;4763;48.370;10.874;2024-01-15T11:06:54;2.50;99.90
9450;DHT22;4763;48.370;10.874;2024-01-15T11:09:23;2.50;99.90
9450;DHT22;4763;48.370;10.874;2024-01-15T11:11:53;2.50;99.90
9450;DHT22;4763;48.370;10.874;2024-01-15T11:14:39;2.60;99.90
9450;DHT22;4763;48.370;10.874;2024-01-15T11:17:07;2.50;99.90
9450;DHT22;4763;48.370;10.874;2024-01-15T11:19:38;2.50;99.90
9450;DHT22;4763;48.370;10.874;2024-01-15T11:22:07;2.50;99.90
9450;DHT22;4763;48.370;10.874;2024-01-15T11:24:38;2.40;99.90
9450;DHT22;4763;48.370;10.874;2024-01-15T11:27:06;2.40;99.90
9450;DHT22;4763;48.370;10.874;2024-01-15T11:29:34;2.20;99.90
9450;DHT22;4763;48.370;10.874;2024-01-15T11:32:03;2.20;99.90
9450;DHT22;4763;48.370;10.874;2024-01-15T11:34:53;2.20;99.90
9450;DHT22;4763;48.370;10.874;2024-01-15T11:37:20;2.30;99.90
9450;DHT22;4763;48.370;10.874;2024-01-15T11:39:51;2.30;99.90
9450;DHT22;4763;48.370;10.874;2024-01-15T11:42:20;2.30;99.90
9450;DHT22;4763;48.370;10.874;2024-01-15T11:44:49;2.40;99.90
9450;DHT22;4763;48.370;10.874;2024-01-15T11:47:44;2.40;99.90
9450;DHT22;4763;48.370;10.874;2024-01-15T11:50:17;2.60;99.90
9450;DHT22;4763;48.370;10.874;2024-01-15T11:52:49;2.60;99.90
9450;DHT22;4763;48.370;10.874;2024-01-15T11:55:26;2.50;99.90
9450;DHT22;4763;48.370;10.874;2024-01-15T11:57:54;2.40;99.90
9450;DHT22;4763;48.370;10.874;2024-01-15T12:00:22;2.40;99.90
9450;DHT22;4763;48.370;10.874;2024-01-15T12:02:50;2.30;99.90
9450;DHT22;4763;48.370;10.874;2024-01-15T12:05:18;2.30;99.90
9450;DHT22;4763;48.370;10.874;2024-01-15T12:07:46;2.20;99.90
9450;DHT22;4763;48.370;10.874;2024-01-15T12:10:15;2.10;99.90
9450;DHT22;4763;48.370;10.874;2024-01-15T12:12:52;2.10;99.90
9450;DHT22;4763;48.370;10.874;2024-01-15T12:15:21;2.20;99.90
9450;DHT22;4763;48.370;10.874;2024-01-15T12:17:47;2.10;99.90
9450;DHT22;4763;48.370;10.874;2024-01-15T12:20:17;2.10;99.90
9450;DHT22;4763;48.370;10.874;2024-01-15T12:22:45;2.20;99.90
9450;DHT22;4763;48.370;10.874;2024-01-15T12:25:12;2.20;99.90
9450;DHT22;4763;48.370;10.874;2024-01-15T12:27:39;2.30;99.90
9450;DHT22;4763;48.370;10.874;2024-01-15T12:30:07;2.30;99.90
9450;DHT22;4763;48.370;10.874;2024-01-15T12:32:34;2.40;99.90
9450;DHT22;4763;48.370;10.874;2024-01-15T12:35:02;2.40;99.90
9450;DHT22;4763;48.370;10.874;2024-01-15T12:37:31;2.40;99.90
9450;DHT22;4763;48.370;10.874;2024-01-15T12:39:59;2.50;99.90
9450;DHT22;4763;48.370;10.874;2024-01-15T12:42:26;2.50;99.90
9450;DHT22;4763;48.370;10.874;2024-01-15T12:44:55;2.50;99.90
9450;DHT22;4763;48.370;10.874;2024-01-15T12:47:22;2.50;99.90
9450;DHT22;4763;48.370;10.874;2024-01-15T12:49:51;2.40;99.90
9450;DHT22;4763;48.370;10.874;2024-01-15T12:52:19;2.40;99.90
9450;DHT22;4763;48.370;10.874;2024-01-15T12:54:48;2.30;99.90
9450;DHT22;4763;48.370;10.874;2024-01-15T12:57:15;2.30;99.90
9450;DHT22;4763;48.370;10.874;2024-01-15T12:59:42;2.20;99.90
9450;DHT22;4763;48.370;10.874;2024-01-15T13:02:09;2.10;99.90
9450;DHT22;4763;48.370;10.874;2024-01-15T13:04:35;2.10;99.90
9450;DHT22;4763;48.370;10.874;2024-01-15T13:07:02;2.10;99.90
9450;DHT22;4763;48.370;10.874;2024-01-15T13:09:29;2.00;99.90
9450;DHT22;4763;48.370;10.874;2024-01-15T13:11:57;1.90;99.90
9450;DHT22;4763;48.370;10.874;2024-01-15T13:14:24;1.90;99.90
9450;DHT22;4763;48.370;10.874;2024-01-15T13:16:51;1.80;99.90
9450;DHT22;4763;48.370;10.874;2024-01-15T13:19:19;1.80;99.90
9450;DHT22;4763;48.370;10.874;2024-01-15T13:21:47;1.80;99.90
9450;DHT22;4763;48.370;10.874;2024-01-15T13:24:14;1.80;99.90
9450;DHT22;4763;48.370;10.874;2024-01-15T13:26:40;1.80;99.90
9450;DHT22;4763;48.370;10.874;2024-01-15T13:29:08;1.80;99.90
9450;DHT22;4763;48.370;10.874;2024-01-15T13:31:35;1.80;99.90
9450;DHT22;4763;48.370;10.874;2024-01-15T13:34:02;1.70;99.90
9450;DHT22;4763;48.370;10.874;2024-01-15T13:36:29;1.70;99.90
9450;DHT22;4763;48.370;10.874;2024-01-15T13:38:55;1.70;99.90
9450;DHT22;4763;48.370;10.874;2024-01-15T13:41:22;1.70;99.90
9450;DHT22;4763;48.370;10.874;2024-01-15T13:43:53;1.70;99.90
9450;DHT22;4763;48.370;10.874;2024-01-15T13:46:24;1.70;99.90
9450;DHT22;4763;48.370;10.874;2024-01-15T13:48:51;1.70;99.90
9450;DHT22;4763;48.370;10.874;2024-01-15T13:51:18;1.70;99.90
9450;DHT22;4763;48.370;10.874;2024-01-15T13:53:45;1.70;99.90
9450;DHT22;4763;48.370;10.874;2024-01-15T13:56:12;1.70;99.90
9450;DHT22;4763;48.370;10.874;2024-01-15T13:58:39;1.70;99.90
9450;DHT22;4763;48.370;10.874;2024-01-15T14:01:05;1.70;99.90
9450;DHT22;4763;48.370;10.874;2024-01-15T14:03:34;1.70;99.90
9450;DHT22;4763;48.370;10.874;2024-01-15T14:06:00;1.70;99.90
9450;DHT22;4763;48.370;10.874;2024-01-15T14:08:28;1.60;99.90
9450;DHT22;4763;48.370;10.874;2024-01-15T14:10:55;1.50;99.90
9450;DHT22;4763;48.370;10.874;2024-01-15T14:13:23;1.50;99.90
9450;DHT22;4763;48.370;10.874;2024-01-15T14:15:49;1.50;99.90
9450;DHT22;4763;48.370;10.874;2024-01-15T14:18:16;1.50;99.90
9450;DHT22;4763;48.370;10.874;2024-01-15T14:20:44;1.40;99.90
9450;DHT22;4763;48.370;10.874;2024-01-15T14:23:12;1.40;99.90
9450;DHT22;4763;48.370;10.874;2024-01-15T14:25:39;1.50;99.90
9450;DHT22;4763;48.370;10.874;2024-01-15T14:28:06;1.50;99.90
9450;DHT22;4763;48.370;10.874;2024-01-15T14:30:33;1.50;99.90
9450;DHT22;4763;48.370;10.874;2024-01-15T14:32:59;1.40;99.90
9450;DHT22;4763;48.370;10.874;2024-01-15T14:35:27;1.50;99.90
9450;DHT22;4763;48.370;10.874;2024-01-15T14:37:55;1.40;99.90
9450;DHT22;4763;48.370;10.874;2024-01-15T14:40:24;1.40;99.90
9450;DHT22;4763;48.370;10.874;2024-01-15T14:42:51;1.40;99.90
9450;DHT22;4763;48.370;10.874;2024-01-15T14:45:18;1.30;99.90
9450;DHT22;4763;48.370;10.874;2024-01-15T14:47:45;1.30;99.90
9450;DHT22;4763;48.370;10.874;2024-01-15T14:50:12;1.20;99.90
9450;DHT22;4763;48.370;10.874;2024-01-15T14:52:39;1.20;99.90
9450;DHT22;4763;48.370;10.874;2024-01-15T14:55:08;1.10;99.90
9450;DHT22;4763;48.370;10.874;2024-01-15T14:57:35;1.10;99.90
9450;DHT22;4763;48.370;10.874;2024-01-15T15:00:03;1.10;99.90
9450;DHT22;4763;48.370;10.874;2024-01-15T15:02:32;1.10;99.90
9450;DHT22;4763;48.370;10.874;2024-01-15T15:05:00;1.10;99.90
9450;DHT22;4763;48.370;10.874;2024-01-15T15:07:26;1.00;99.90
9450;DHT22;4763;48.370;10.874;2024-01-15T15:09:53;1.00;99.90
9450;DHT22;4763;48.370;10.874;2024-01-15T15:12:21;0.90;99.90
9450;DHT22;4763;48.370;10.874;2024-01-15T15:14:48;0.90;99.90
9450;DHT22;4763;48.370;10.874;2024-01-15T15:17:15;0.80;99.90
9450;DHT22;4763;48.370;10.874;2024-01-15T15:19:42;0.80;99.90
9450;DHT22;4763;48.370;10.874;2024-01-15T15:22:09;0.80;99.90
9450;DHT22;4763;48.370;10.874;2024-01-15T15:24:36;0.70;99.90
9450;DHT22;4763;48.370;10.874;2024-01-15T15:27:04;0.70;99.90
9450;DHT22;4763;48.370;10.874;2024-01-15T15:29:33;0.70;99.90
9450;DHT22;4763;48.370;10.874;2024-01-15T15:32:00;0.70;99.90
9450;DHT22;4763;48.370;10.874;2024-01-15T15:34:27;0.70;99.90
9450;DHT22;4763;48.370;10.874;2024-01-15T15:36:54;0.60;99.90
9450;DHT22;4763;48.370;10.874;2024-01-15T15:39:21;0.60;99.90
9450;DHT22;4763;48.370;10.874;2024-01-15T15:41:47;0.50;99.90
9450;DHT22;4763;48.370;10.874;2024-01-15T15:44:15;0.50;99.90
9450;DHT22;4763;48.370;10.874;2024-01-15T15:46:43;0.40;99.90
9450;DHT22;4763;48.370;10.874;2024-01-15T15:49:11;0.40;99.90
9450;DHT22;4763;48.370;10.874;2024-01-15T15:51:37;0.40;99.90
9450;DHT22;4763;48.370;10.874;2024-01-15T15:54:04;0.40;99.90